createdAt,value
2022-11-13T00:02:21.019Z,1.67
2022-11-13T00:05:40.883Z,1.70
2022-11-13T00:09:00.764Z,1.70
2022-11-13T00:12:20.575Z,1.98
2022-11-13T00:15:40.390Z,1.77
2022-11-13T00:19:00.421Z,1.75
2022-11-13T00:22:20.751Z,1.70
2022-11-13T00:25:40.728Z,1.50
2022-11-13T00:29:02.736Z,1.70
2022-11-13T00:32:22.827Z,1.80
2022-11-13T00:35:42.808Z,1.88
2022-11-13T00:39:02.943Z,1.80
2022-11-13T00:42:23.188Z,1.80
2022-11-13T00:45:43.178Z,1.70
2022-11-13T00:49:03.648Z,1.60
2022-11-13T00:52:23.685Z,1.52
2022-11-13T00:55:44.516Z,1.73
2022-11-13T00:59:04.744Z,1.55
2022-11-13T01:02:24.679Z,1.80
2022-11-13T01:05:46.122Z,1.40
2022-11-13T01:09:06.374Z,1.60
2022-11-13T01:12:26.412Z,1.60
2022-11-13T01:15:46.721Z,1.60
2022-11-13T01:19:07.019Z,1.52
2022-11-13T01:22:27.295Z,1.67
2022-11-13T01:25:47.519Z,1.70
2022-11-13T01:29:07.470Z,1.60
2022-11-13T01:32:27.421Z,1.70
2022-11-13T01:35:47.729Z,1.50
2022-11-13T01:39:10.752Z,1.50
2022-11-13T01:42:33.425Z,1.60
2022-11-13T01:45:59.512Z,1.60
2022-11-13T01:49:31.980Z,1.58
2022-11-13T01:52:52.251Z,1.50
2022-11-13T01:56:13.166Z,1.50
2022-11-13T01:59:40.838Z,1.60
2022-11-13T02:06:21.891Z,1.52
2022-11-13T02:09:48.197Z,1.50
2022-11-13T02:13:08.068Z,1.50
2022-11-13T02:16:31.736Z,1.58
2022-11-13T02:19:56.504Z,1.60
2022-11-13T02:23:19.704Z,1.40
2022-11-13T02:26:40.652Z,1.60
2022-11-13T02:30:16.386Z,1.48
2022-11-13T02:33:37.397Z,1.52
2022-11-13T02:36:57.702Z,1.60
2022-11-13T02:40:18.774Z,1.58
2022-11-13T02:43:39.068Z,1.40
2022-11-13T02:46:58.951Z,1.60
2022-11-13T02:50:19.132Z,1.60
2022-11-13T02:53:39.419Z,1.30
2022-11-13T02:56:59.794Z,1.60
2022-11-13T03:00:20.060Z,1.45
2022-11-13T03:03:57.044Z,1.60
2022-11-13T03:07:17.575Z,1.42
2022-11-13T03:10:37.434Z,1.50
2022-11-13T03:13:57.424Z,1.50
2022-11-13T03:17:17.339Z,1.40
2022-11-13T03:20:39.114Z,1.60
2022-11-13T03:23:59.566Z,1.63
2022-11-13T03:27:20.304Z,1.52
2022-11-13T03:30:40.425Z,1.60
2022-11-13T03:34:00.823Z,1.50
2022-11-13T03:37:21.192Z,1.48
2022-11-13T03:40:42.931Z,1.40
2022-11-13T03:44:03.140Z,1.40
2022-11-13T03:47:23.268Z,1.65
2022-11-13T03:50:45.727Z,1.35
2022-11-13T03:54:05.708Z,1.50
2022-11-13T03:57:25.819Z,1.45
2022-11-13T04:00:46.647Z,1.50
2022-11-13T04:04:06.528Z,1.35
2022-11-13T04:07:26.534Z,1.48
2022-11-13T04:10:47.190Z,1.30
2022-11-13T04:14:07.727Z,1.40
2022-11-13T04:17:27.703Z,1.35
2022-11-13T04:20:47.620Z,1.30
2022-11-13T04:24:07.770Z,1.42
2022-11-13T04:27:27.855Z,1.48
2022-11-13T04:30:47.930Z,1.30
2022-11-13T04:34:08.468Z,1.20
2022-11-13T04:37:28.477Z,1.40
2022-11-13T04:41:12.008Z,1.23
2022-11-13T04:44:31.965Z,1.40
2022-11-13T04:47:52.160Z,1.30
2022-11-13T04:51:12.971Z,1.40
2022-11-13T04:54:33.180Z,1.30
2022-11-13T04:57:55.464Z,1.45
2022-11-13T05:01:15.835Z,1.30
2022-11-13T05:04:36.077Z,1.40
2022-11-13T05:07:56.284Z,1.30
2022-11-13T05:11:16.119Z,1.33
2022-11-13T05:14:37.420Z,1.30
2022-11-13T05:17:57.659Z,1.20
2022-11-13T05:21:18.079Z,1.30
2022-11-13T05:24:38.475Z,1.30
2022-11-13T05:27:58.849Z,1.40
2022-11-13T05:31:19.037Z,1.20
2022-11-13T05:34:39.337Z,1.38
2022-11-13T05:38:03.020Z,1.25
2022-11-13T05:41:23.989Z,1.10
2022-11-13T05:44:44.361Z,1.30
2022-11-13T05:48:04.857Z,1.02
2022-11-13T05:51:34.498Z,1.20
2022-11-13T05:54:54.301Z,1.35
2022-11-13T05:58:14.339Z,1.30
2022-11-13T06:01:36.660Z,1.23
2022-11-13T06:04:56.880Z,1.10
2022-11-13T06:08:16.864Z,1.42
2022-11-13T06:11:36.873Z,1.40
2022-11-13T06:14:57.001Z,1.30
2022-11-13T06:18:26.288Z,1.20
2022-11-13T06:21:46.994Z,1.30
2022-11-13T06:25:07.444Z,1.30
2022-11-13T06:28:27.872Z,1.30
2022-11-13T06:31:48.258Z,1.20
2022-11-13T06:35:08.286Z,1.20
2022-11-13T06:38:37.227Z,1.30
2022-11-13T06:41:57.368Z,1.27
2022-11-13T06:45:17.851Z,1.17
2022-11-13T06:48:37.737Z,1.20
2022-11-13T06:51:57.703Z,1.23
2022-11-13T06:55:17.715Z,1.10
2022-11-13T06:58:38.204Z,1.30
2022-11-13T07:01:58.033Z,1.20
2022-11-13T07:05:18.155Z,1.13
2022-11-13T07:08:38.328Z,1.27
2022-11-13T07:11:58.350Z,1.20
2022-11-13T07:15:18.662Z,1.25
2022-11-13T07:18:39.075Z,1.10
2022-11-13T07:21:59.126Z,1.25
2022-11-13T07:25:18.920Z,1.10
2022-11-13T07:28:39.162Z,1.20
2022-11-13T07:31:59.168Z,1.10
2022-11-13T07:35:20.107Z,1.20
2022-11-13T07:38:40.230Z,1.05
2022-11-13T07:42:00.344Z,1.20
2022-11-13T07:45:20.556Z,1.10
2022-11-13T07:48:40.647Z,1.27
2022-11-13T07:52:00.881Z,1.10
2022-11-13T07:55:21.076Z,1.20
2022-11-13T07:58:41.542Z,1.20
2022-11-13T08:02:02.035Z,1.40
2022-11-13T08:05:22.334Z,1.30
2022-11-13T08:08:42.602Z,1.20
2022-11-13T08:12:02.745Z,1.52
2022-11-13T08:15:22.648Z,1.35
2022-11-13T08:18:42.677Z,1.42
2022-11-13T08:22:02.656Z,1.40
2022-11-13T08:25:22.520Z,1.42
2022-11-13T08:28:43.973Z,1.55
2022-11-13T08:32:04.877Z,1.60
2022-11-13T08:35:29.191Z,1.40
2022-11-13T08:38:49.788Z,1.55
2022-11-13T08:42:09.694Z,1.40
2022-11-13T08:45:31.177Z,1.50
2022-11-13T08:48:51.311Z,1.40
2022-11-13T08:52:11.540Z,1.58
2022-11-13T08:55:33.233Z,1.30
2022-11-13T08:58:53.442Z,1.50
2022-11-13T09:02:15.178Z,1.55
2022-11-13T09:05:35.155Z,1.48
2022-11-13T09:08:55.427Z,1.50
2022-11-13T09:12:16.041Z,1.92
2022-11-13T09:15:37.798Z,1.42
2022-11-13T09:18:57.822Z,1.85
2022-11-13T09:22:17.988Z,1.52
2022-11-13T09:25:38.369Z,1.67
2022-11-13T09:28:58.567Z,1.90
2022-11-13T09:32:19.027Z,1.83
2022-11-13T09:35:39.197Z,2.20
2022-11-13T09:39:00.719Z,2.38
2022-11-13T09:42:24.961Z,2.67
2022-11-13T09:45:45.556Z,3.00
2022-11-13T09:49:25.265Z,2.97
2022-11-13T09:52:46.204Z,3.70
2022-11-13T09:56:15.255Z,3.30
2022-11-13T09:59:56.645Z,3.45
2022-11-13T10:03:59.730Z,3.80
2022-11-13T10:07:35.396Z,4.05
2022-11-13T10:11:11.624Z,4.40
2022-11-13T10:14:38.649Z,4.47
2022-11-13T10:18:18.305Z,4.00
2022-11-13T10:21:44.343Z,4.60
2022-11-13T10:25:20.427Z,4.07
2022-11-13T10:28:50.619Z,3.80
2022-11-13T10:32:27.576Z,4.05
2022-11-13T10:36:03.927Z,4.03
2022-11-13T10:39:23.976Z,3.80
2022-11-13T10:42:44.451Z,3.90
2022-11-13T10:46:05.643Z,3.60
2022-11-13T10:49:29.055Z,3.47
2022-11-13T10:52:51.157Z,3.50
2022-11-13T10:56:32.952Z,4.15
2022-11-13T10:59:53.272Z,3.97
2022-11-13T11:03:19.476Z,3.22
2022-11-13T11:07:17.799Z,3.78
2022-11-13T11:10:21.567Z,3.33
2022-11-13T11:13:41.678Z,3.60
2022-11-13T11:17:04.150Z,3.47
2022-11-13T11:20:49.626Z,3.25
2022-11-13T11:24:13.925Z,3.58
2022-11-13T11:27:52.362Z,3.30
2022-11-13T11:31:21.795Z,2.83
2022-11-13T11:34:59.401Z,2.90
2022-11-13T11:38:27.167Z,3.20
2022-11-13T11:42:15.444Z,2.70
2022-11-13T11:45:40.733Z,2.70
2022-11-13T11:49:01.645Z,2.90
2022-11-13T11:52:56.471Z,3.65
2022-11-13T11:56:26.818Z,2.42
2022-11-13T12:00:10.691Z,2.63
2022-11-13T12:03:44.607Z,3.00
2022-11-13T12:07:10.855Z,2.80
2022-11-13T12:10:56.783Z,2.90
2022-11-13T12:14:38.256Z,2.63
2022-11-13T12:18:12.802Z,2.58
2022-11-13T12:22:06.671Z,3.80
2022-11-13T12:25:35.524Z,6.93
2022-11-13T12:29:19.559Z,5.30
2022-11-13T12:32:48.416Z,4.78
2022-11-13T12:36:11.905Z,4.57
2022-11-13T12:39:43.042Z,4.25
2022-11-13T12:43:41.763Z,4.35
2022-11-13T12:47:02.085Z,3.97
2022-11-13T12:50:32.736Z,4.25
2022-11-13T12:53:55.980Z,4.10
2022-11-13T12:57:28.632Z,4.18
2022-11-13T13:01:07.833Z,4.00
2022-11-13T13:11:49.432Z,3.75
2022-11-13T13:15:27.443Z,4.90
2022-11-13T13:18:47.779Z,4.72
2022-11-13T13:22:23.800Z,4.43
2022-11-13T13:25:43.708Z,4.65
2022-11-13T13:29:18.604Z,5.68
2022-11-13T13:32:58.881Z,5.55
2022-11-13T13:36:37.733Z,6.47
2022-11-13T13:40:19.754Z,7.25
2022-11-13T13:44:01.561Z,6.72
2022-11-13T13:47:27.907Z,6.20
2022-11-13T13:50:50.679Z,6.60
2022-11-13T13:54:18.695Z,6.43
2022-11-13T13:57:41.563Z,6.57
2022-11-13T14:01:18.848Z,5.93
2022-11-13T14:04:48.350Z,6.60
2022-11-13T14:08:19.459Z,6.15
2022-11-13T14:11:39.451Z,6.30
2022-11-13T14:14:59.655Z,6.38
2022-11-13T14:18:20.060Z,6.43
2022-11-13T14:21:40.645Z,6.30
2022-11-13T14:25:01.475Z,6.10
2022-11-13T14:28:25.392Z,5.47
2022-11-13T14:31:45.798Z,5.43
2022-11-13T14:35:07.967Z,5.93
2022-11-13T14:38:33.660Z,5.90
2022-11-13T14:41:57.376Z,5.55
2022-11-13T14:45:28.614Z,6.68
2022-11-13T14:48:55.672Z,7.20
2022-11-13T14:52:22.482Z,7.78
2022-11-13T14:55:54.919Z,7.45
2022-11-13T14:59:19.993Z,5.75
2022-11-13T15:02:40.263Z,5.70
2022-11-13T15:06:00.297Z,5.60
2022-11-13T15:09:21.087Z,5.40
2022-11-13T15:12:41.402Z,5.32
2022-11-13T15:16:01.840Z,4.88
2022-11-13T15:19:35.099Z,5.15
2022-11-13T15:22:57.180Z,5.75
2022-11-13T15:26:17.433Z,5.10
2022-11-13T15:29:37.527Z,4.82
2022-11-13T15:32:59.240Z,5.00
2022-11-13T15:36:19.367Z,5.22
2022-11-13T15:39:39.432Z,5.50
2022-11-13T15:43:01.222Z,5.53
2022-11-13T15:46:22.868Z,5.15
2022-11-13T15:49:56.640Z,4.70
2022-11-13T15:53:22.825Z,5.10
2022-11-13T15:56:43.806Z,5.50
2022-11-13T16:00:12.704Z,5.22
2022-11-13T16:03:39.342Z,5.07
2022-11-13T16:06:59.514Z,5.55
2022-11-13T16:10:21.014Z,5.15
2022-11-13T16:13:41.058Z,5.00
2022-11-13T16:17:01.364Z,4.60
2022-11-13T16:20:21.710Z,4.72
2022-11-13T16:23:42.214Z,4.90
2022-11-13T16:27:02.343Z,4.82
2022-11-13T16:30:26.416Z,4.82
2022-11-13T16:33:46.451Z,5.20
2022-11-13T16:37:16.496Z,4.93
2022-11-13T16:40:36.747Z,4.80
2022-11-13T16:43:56.864Z,5.15
2022-11-13T16:47:25.452Z,5.10
2022-11-13T16:50:45.787Z,5.40
2022-11-13T16:54:05.699Z,5.85
2022-11-13T16:57:25.615Z,5.10
2022-11-13T17:00:45.541Z,5.20
2022-11-13T17:04:05.561Z,4.93
2022-11-13T17:07:25.861Z,5.35
2022-11-13T17:10:46.284Z,5.35
2022-11-13T17:14:06.309Z,5.45
2022-11-13T17:17:26.210Z,4.95
2022-11-13T17:20:50.177Z,5.13
2022-11-13T17:24:10.301Z,5.32
2022-11-13T17:27:30.344Z,5.43
2022-11-13T17:30:54.963Z,5.85
2022-11-13T17:37:37.554Z,5.13
2022-11-13T17:41:07.977Z,6.32
2022-11-13T17:44:28.082Z,5.93
2022-11-13T17:47:49.907Z,5.65
2022-11-13T17:51:15.233Z,6.00
2022-11-13T17:54:35.398Z,6.85
2022-11-13T17:57:58.925Z,6.75
2022-11-13T18:01:21.991Z,7.13
2022-11-13T18:04:42.526Z,8.20
2022-11-13T18:08:02.492Z,8.77
2022-11-13T18:11:25.916Z,9.55
2022-11-13T18:14:52.147Z,10.13
2022-11-13T18:18:12.292Z,10.43
2022-11-13T18:21:34.714Z,10.57
2022-11-13T18:24:55.103Z,10.52
2022-11-13T18:28:15.300Z,10.95
2022-11-13T18:31:35.496Z,10.48
2022-11-13T18:34:55.395Z,10.65
2022-11-13T18:38:15.631Z,10.20
2022-11-13T18:41:36.167Z,11.60
2022-11-13T18:44:57.305Z,10.98
2022-11-13T18:48:18.782Z,10.18
2022-11-13T18:51:38.968Z,10.93
2022-11-13T18:54:58.876Z,10.77
2022-11-13T18:58:19.012Z,10.27
2022-11-13T19:01:39.922Z,10.35
2022-11-13T19:05:00.324Z,9.18
2022-11-13T19:08:20.772Z,10.15
2022-11-13T19:11:42.029Z,9.25
2022-11-13T19:15:02.831Z,9.27
2022-11-13T19:18:22.940Z,9.43
2022-11-13T19:21:43.890Z,9.48
2022-11-13T19:25:04.045Z,9.40
2022-11-13T19:28:24.763Z,9.13
2022-11-13T19:31:46.603Z,9.02
2022-11-13T19:35:06.652Z,9.35
2022-11-13T19:38:27.669Z,8.63
2022-11-13T19:41:48.100Z,8.82
2022-11-13T19:45:08.644Z,8.15
2022-11-13T19:48:28.631Z,8.63
2022-11-13T19:51:48.571Z,8.82
2022-11-13T19:55:08.940Z,8.38
2022-11-13T19:58:29.440Z,8.35
2022-11-13T20:01:49.994Z,8.13
2022-11-13T20:05:10.145Z,8.25
2022-11-13T20:08:30.773Z,7.70
2022-11-13T20:11:51.375Z,7.72
2022-11-13T20:15:11.700Z,7.68
2022-11-13T20:18:32.123Z,7.63
2022-11-13T20:21:53.794Z,7.53
2022-11-13T20:25:13.783Z,7.63
2022-11-13T20:28:34.361Z,7.93
2022-11-13T20:31:54.388Z,7.30
2022-11-13T20:35:16.035Z,7.93
2022-11-13T20:38:36.525Z,7.22
2022-11-13T20:41:56.474Z,7.63
2022-11-13T20:45:16.542Z,7.53
2022-11-13T20:48:36.893Z,7.57
2022-11-13T20:51:57.440Z,7.15
2022-11-13T20:55:17.468Z,7.07
2022-11-13T20:58:37.557Z,6.80
2022-11-13T21:01:57.772Z,7.25
2022-11-13T21:05:18.209Z,6.60
2022-11-13T21:08:38.427Z,6.90
2022-11-13T21:11:58.422Z,6.80
2022-11-13T21:15:18.291Z,6.60
2022-11-13T21:18:38.389Z,7.07
2022-11-13T21:21:58.289Z,7.13
2022-11-13T21:25:19.562Z,6.82
2022-11-13T21:28:40.548Z,6.80
2022-11-13T21:32:01.046Z,6.63
2022-11-13T21:35:22.664Z,6.10
2022-11-13T21:38:43.457Z,6.38
2022-11-13T21:42:03.813Z,6.18
2022-11-13T21:45:24.040Z,6.85
2022-11-13T21:48:45.116Z,6.68
2022-11-13T21:52:05.436Z,6.32
2022-11-13T21:55:25.285Z,6.10
2022-11-13T21:58:45.426Z,6.43
2022-11-13T22:02:05.960Z,5.85
2022-11-13T22:05:26.351Z,6.28
2022-11-13T22:08:54.583Z,6.53
2022-11-13T22:12:15.093Z,6.22
2022-11-13T22:15:35.350Z,6.40
2022-11-13T22:18:56.857Z,6.10
2022-11-13T22:22:17.079Z,6.95
2022-11-13T22:25:36.848Z,6.72
2022-11-13T22:28:56.996Z,6.30
2022-11-13T22:32:17.202Z,6.22
2022-11-13T22:35:37.116Z,6.60
2022-11-13T22:38:58.474Z,6.20
2022-11-13T22:42:18.607Z,6.35
2022-11-13T22:45:38.445Z,6.40
2022-11-13T22:49:01.628Z,6.25
2022-11-13T22:52:21.844Z,6.78
2022-11-13T22:55:41.777Z,6.05
2022-11-13T22:59:04.024Z,6.30
2022-11-13T23:02:24.381Z,5.30
2022-11-13T23:05:44.414Z,5.97
2022-11-13T23:09:05.661Z,6.05
2022-11-13T23:12:27.224Z,6.20
2022-11-13T23:15:47.500Z,5.88
2022-11-13T23:19:07.592Z,5.93
2022-11-13T23:22:27.555Z,6.25
2022-11-13T23:25:47.573Z,5.80
2022-11-13T23:29:07.696Z,6.10
2022-11-13T23:32:27.815Z,6.10
2022-11-13T23:35:48.699Z,5.70
2022-11-13T23:39:09.018Z,6.32
2022-11-13T23:42:53.492Z,6.05
2022-11-13T23:46:09.219Z,6.40
2022-11-13T23:49:29.444Z,5.82
2022-11-13T23:52:49.584Z,6.03
2022-11-13T23:56:10.842Z,5.47
2022-11-13T23:59:31.076Z,6.20
